Time;durP1;ratioP1;P1;durP2;ratioP2;P2;SDS_P1;SDS_P2;PMS_P1;PMS_P2;Temp;Humidity;BMP_temperature;BMP_pressure;BME280_temperature;BME280_humidity;BME280_pressure;Samples;Min_cycle;Max_cycle;Signal;HPM_P1;HPM_P2
2021/06/22 00:02:06;;;;;;;17.75;11.05;;;11.20;99.90;;;;;;5029080;28;20055;-39
2021/06/22 00:04:34;;;;;;;21.17;11.93;;;11.20;99.90;;;;;;5028073;28;20084;-39
2021/06/22 00:07:00;;;;;;;19.17;12.10;;;11.10;99.90;;;;;;5029078;28;20057;-40
2021/06/22 00:09:30;;;;;;;15.50;10.23;;;11.20;99.90;;;;;;5031146;28;20049;-39
2021/06/22 00:12:03;;;;;;;18.35;10.90;;;11.10;99.90;;;;;;5048135;28;20049;-40
2021/06/22 00:14:29;;;;;;;17.05;11.45;;;11.20;99.90;;;;;;5046803;28;20432;-40
2021/06/22 00:16:58;;;;;;;19.67;11.75;;;11.10;99.90;;;;;;5035849;28;20048;-40
2021/06/22 00:19:24;;;;;;;17.85;11.70;;;11.10;99.90;;;;;;5027584;28;20046;-40
2021/06/22 00:21:50;;;;;;;19.23;11.60;;;11.20;99.90;;;;;;5027852;28;20060;-40
2021/06/22 00:24:19;;;;;;;21.90;11.70;;;11.10;99.90;;;;;;5032606;28;20169;-40
2021/06/22 00:26:45;;;;;;;17.67;11.60;;;11.10;99.90;;;;;;5047319;28;20045;-40
2021/06/22 00:29:16;;;;;;;17.83;11.80;;;11.10;99.90;;;;;;5052101;28;20483;-40
2021/06/22 00:31:44;;;;;;;18.77;10.85;;;11.10;99.90;;;;;;5034367;28;20049;-40
2021/06/22 00:34:11;;;;;;;17.08;10.27;;;11.10;99.90;;;;;;5028852;28;20149;-40
2021/06/22 00:36:37;;;;;;;14.15;10.98;;;11.10;99.90;;;;;;5050288;28;20037;-40
2021/06/22 00:39:04;;;;;;;15.50;11.07;;;11.10;99.90;;;;;;5044592;28;20049;-40
2021/06/22 00:41:31;;;;;;;18.65;11.55;;;11.10;99.90;;;;;;5026596;28;20045;-40
2021/06/22 00:44:08;;;;;;;15.93;11.55;;;11.10;99.90;;;;;;5031635;28;20049;-39
2021/06/22 00:46:36;;;;;;;18.27;10.80;;;11.10;99.90;;;;;;5042714;28;20045;-40
2021/06/22 00:49:05;;;;;;;16.20;10.77;;;11.00;99.90;;;;;;5046403;28;20044;-40
2021/06/22 00:51:40;;;;;;;17.17;11.10;;;11.00;99.90;;;;;;5045280;28;20044;-40
2021/06/22 00:54:09;;;;;;;18.00;11.57;;;10.90;99.90;;;;;;5040738;28;20473;-40
2021/06/22 00:56:39;;;;;;;17.17;11.68;;;10.90;99.90;;;;;;5026692;28;20049;-40
2021/06/22 00:59:09;;;;;;;18.23;10.98;;;10.90;99.90;;;;;;5026959;28;20053;-40
2021/06/22 01:01:36;;;;;;;17.35;12.23;;;10.90;99.90;;;;;;5030217;28;20107;-40
2021/06/22 01:04:03;;;;;;;15.13;11.15;;;10.90;99.90;;;;;;5045183;28;20052;-40
2021/06/22 01:06:31;;;;;;;19.60;11.85;;;10.90;99.90;;;;;;5043301;28;20045;-40
2021/06/22 01:09:09;;;;;;;16.70;11.48;;;11.00;99.90;;;;;;5043670;28;20079;-40
2021/06/22 01:11:38;;;;;;;17.42;11.55;;;11.00;99.90;;;;;;5025537;28;20095;-40
2021/06/22 01:14:05;;;;;;;17.75;12.35;;;11.10;99.90;;;;;;5025034;28;20076;-40
2021/06/22 01:16:34;;;;;;;17.33;11.15;;;11.10;99.90;;;;;;5026188;28;20089;-40
2021/06/22 01:19:04;;;;;;;15.50;11.30;;;11.10;99.90;;;;;;5040890;28;20064;-40
2021/06/22 01:21:48;;;;;;;14.57;10.93;;;11.20;99.90;;;;;;5046169;28;20570;-40
2021/06/22 01:24:22;;;;;;;14.45;11.18;;;11.20;99.90;;;;;;5039909;28;20057;-40
2021/06/22 01:26:54;;;;;;;26.02;12.05;;;11.20;99.90;;;;;;5025533;28;20132;-40
2021/06/22 01:29:21;;;;;;;16.40;10.85;;;11.20;99.90;;;;;;5025920;28;20076;-40
2021/06/22 01:31:49;;;;;;;19.48;11.25;;;11.10;99.90;;;;;;5025925;28;20140;-40
2021/06/22 01:34:24;;;;;;;18.30;10.85;;;11.10;99.90;;;;;;5025031;28;20053;-40
2021/06/22 01:36:52;;;;;;;16.48;10.95;;;11.10;99.90;;;;;;5035045;28;20143;-40
2021/06/22 01:39:18;;;;;;;19.55;12.10;;;11.10;99.90;;;;;;5040315;28;20052;-40
2021/06/22 01:41:45;;;;;;;15.90;11.25;;;11.10;99.90;;;;;;5031582;28;20072;-40
2021/06/22 01:44:11;;;;;;;19.77;10.68;;;11.20;99.90;;;;;;5044768;28;20468;-40
2021/06/22 01:46:38;;;;;;;19.83;11.50;;;11.20;99.90;;;;;;5030024;28;20049;-40
2021/06/22 01:49:05;;;;;;;17.15;11.38;;;11.30;99.90;;;;;;5043072;28;20441;-40
2021/06/22 01:51:35;;;;;;;19.50;10.57;;;11.40;99.90;;;;;;5026271;28;20131;-40
2021/06/22 01:54:02;;;;;;;18.00;9.85;;;11.40;99.90;;;;;;5027095;28;20187;-40
2021/06/22 01:56:30;;;;;;;15.20;8.65;;;11.50;99.90;;;;;;5046074;28;20053;-40
2021/06/22 01:59:00;;;;;;;14.68;10.05;;;11.60;99.90;;;;;;5034190;28;20057;-40
2021/06/22 02:01:47;;;;;;;14.05;9.48;;;11.60;99.90;;;;;;5042757;28;20068;-40
2021/06/22 02:04:27;;;;;;;15.35;9.13;;;11.70;99.90;;;;;;5044404;28;20049;-40
2021/06/22 02:06:56;;;;;;;15.05;8.68;;;11.80;99.90;;;;;;5045725;28;20041;-40
2021/06/22 02:09:37;;;;;;;14.73;9.55;;;11.80;99.90;;;;;;5044807;28;20045;-40
2021/06/22 02:12:06;;;;;;;16.45;10.60;;;11.80;99.90;;;;;;5042945;28;20071;-40
2021/06/22 02:14:33;;;;;;;18.75;9.02;;;11.90;99.90;;;;;;5044846;28;20040;-39
2021/06/22 02:17:01;;;;;;;14.90;8.93;;;11.90;99.90;;;;;;5043004;28;20374;-40
2021/06/22 02:19:29;;;;;;;16.60;10.27;;;11.90;99.90;;;;;;5045723;28;20044;-42
2021/06/22 02:21:57;;;;;;;18.45;9.70;;;11.90;99.90;;;;;;5035500;28;20134;-40
2021/06/22 02:24:30;;;;;;;12.65;9.15;;;11.90;99.90;;;;;;5026211;28;20065;-39
2021/06/22 02:26:56;;;;;;;16.35;9.25;;;11.80;99.90;;;;;;5025020;28;20055;-40
2021/06/22 02:29:23;;;;;;;17.50;10.73;;;11.80;99.90;;;;;;5027822;28;20432;-40
2021/06/22 02:31:51;;;;;;;14.35;10.32;;;11.80;99.90;;;;;;5034563;28;20072;-40
2021/06/22 02:34:18;;;;;;;17.67;11.27;;;11.80;99.90;;;;;;5029387;28;20045;-40
2021/06/22 02:36:47;;;;;;;18.65;11.70;;;11.70;99.90;;;;;;5028300;28;20049;-40
2021/06/22 02:39:20;;;;;;;21.42;11.57;;;11.70;99.90;;;;;;5031901;28;20048;-40
2021/06/22 02:41:52;;;;;;;;;;;11.60;99.90;;;;;;5050857;28;20037;-40
2021/06/22 02:44:18;;;;;;;20.00;11.23;;;11.60;99.90;;;;;;5042489;28;19921;-40
2021/06/22 02:46:49;;;;;;;19.50;12.40;;;11.50;99.90;;;;;;5029741;28;20057;-40
2021/06/22 02:49:16;;;;;;;21.33;13.10;;;11.40;99.90;;;;;;5048306;28;20052;-40
2021/06/22 02:51:43;;;;;;;20.65;13.48;;;11.40;99.90;;;;;;5048799;28;20446;-40
2021/06/22 02:54:10;;;;;;;18.98;13.32;;;11.40;99.90;;;;;;5038854;28;20068;-40
2021/06/22 02:56:36;;;;;;;20.40;13.40;;;11.30;99.90;;;;;;5035783;28;20041;-40
2021/06/22 02:59:05;;;;;;;22.15;14.60;;;11.30;99.90;;;;;;5035310;28;20045;-40
2021/06/22 03:01:32;;;;;;;17.40;14.63;;;11.30;99.90;;;;;;5027851;28;20524;-40
2021/06/22 03:03:59;;;;;;;19.15;14.55;;;11.20;99.90;;;;;;5032095;28;20098;-40
2021/06/22 03:06:27;;;;;;;24.60;16.17;;;11.20;99.90;;;;;;5027818;28;20042;-40
2021/06/22 03:08:56;;;;;;;19.90;15.45;;;11.20;99.90;;;;;;5047918;28;20052;-40
2021/06/22 03:11:33;;;;;;;23.50;15.95;;;11.20;99.90;;;;;;5029279;28;20069;-40
2021/06/22 03:14:02;;;;;;;21.58;17.67;;;11.20;99.90;;;;;;5039349;28;20135;-40
2021/06/22 03:16:39;;;;;;;25.23;17.08;;;11.20;99.90;;;;;;5029088;28;20769;-40
2021/06/22 03:19:06;;;;;;;23.55;16.80;;;11.20;99.90;;;;;;5030181;28;20053;-40
2021/06/22 03:21:43;;;;;;;20.92;16.17;;;11.10;99.90;;;;;;5028114;28;20053;-40
2021/06/22 03:24:14;;;;;;;26.15;17.45;;;11.10;99.90;;;;;;5031208;28;20111;-40
2021/06/22 03:26:41;;;;;;;22.10;16.17;;;11.10;99.90;;;;;;5029474;28;20137;-40
2021/06/22 03:29:08;;;;;;;25.30;18.23;;;11.00;99.90;;;;;;5028893;28;20038;-40
2021/06/22 03:31:53;;;;;;;22.08;17.67;;;11.00;99.90;;;;;;5026406;28;20050;-40
2021/06/22 03:34:20;;;;;;;26.20;18.88;;;11.00;99.90;;;;;;5045179;28;20114;-40
2021/06/22 03:36:46;;;;;;;22.88;17.67;;;10.90;99.90;;;;;;5048122;28;20049;-40
2021/06/22 03:39:14;;;;;;;22.77;18.00;;;10.90;99.90;;;;;;5045842;28;20045;-40
2021/06/22 03:41:40;;;;;;;24.88;18.08;;;10.90;99.90;;;;;;5048670;28;20444;-40
2021/06/22 03:44:08;;;;;;;24.67;17.60;;;10.90;99.90;;;;;;5039479;28;20053;-40
2021/06/22 03:46:50;;;;;;;25.20;18.77;;;10.80;99.90;;;;;;5042725;28;20487;-40
2021/06/22 03:49:17;;;;;;;25.60;18.70;;;10.80;99.90;;;;;;5045230;28;20067;-40
2021/06/22 03:51:44;;;;;;;23.15;16.95;;;10.80;99.90;;;;;;5048395;28;20048;-40
2021/06/22 03:54:11;;;;;;;26.55;18.25;;;10.80;99.90;;;;;;5038139;28;20395;-40
2021/06/22 03:56:39;;;;;;;25.92;19.75;;;10.80;99.90;;;;;;5047766;28;20510;-40
2021/06/22 03:59:15;;;;;;;23.70;18.20;;;10.80;99.90;;;;;;5047073;28;20080;-40
2021/06/22 04:01:42;;;;;;;24.80;18.95;;;10.80;99.90;;;;;;5047604;28;20044;-40
2021/06/22 04:04:08;;;;;;;27.17;18.10;;;10.80;99.90;;;;;;5046763;28;20532;-40
2021/06/22 04:06:53;;;;;;;26.65;18.58;;;10.80;99.90;;;;;;5046536;28;20474;-41
2021/06/22 04:09:25;;;;;;;24.08;18.48;;;10.80;99.90;;;;;;5044288;28;20073;-40
2021/06/22 04:11:55;;;;;;;23.80;18.40;;;10.80;99.90;;;;;;5046393;28;20072;-40
2021/06/22 04:14:24;;;;;;;27.20;19.85;;;10.90;99.90;;;;;;5047614;28;20481;-39
2021/06/22 04:16:54;;;;;;;24.83;19.27;;;10.90;99.90;;;;;;5031784;28;20485;-39
2021/06/22 04:19:23;;;;;;;23.90;19.33;;;10.90;99.90;;;;;;5038798;28;20057;-40
2021/06/22 04:21:53;;;;;;;24.08;17.50;;;10.90;99.90;;;;;;5047604;28;20049;-40
2021/06/22 04:24:35;;;;;;;27.80;18.70;;;10.90;99.90;;;;;;5041527;28;20376;-39
2021/06/22 04:27:02;;;;;;;25.80;18.25;;;10.90;99.90;;;;;;5047380;28;20451;-39
2021/06/22 04:29:28;;;;;;;24.70;19.27;;;10.90;99.90;;;;;;5052778;28;20033;-40
2021/06/22 04:31:58;;;;;;;23.80;17.40;;;11.00;99.90;;;;;;5047298;28;20615;-39
2021/06/22 04:34:25;;;;;;;25.58;20.13;;;11.00;99.90;;;;;;5042571;28;20049;-40
2021/06/22 04:36:54;;;;;;;24.10;18.75;;;11.00;99.90;;;;;;5049209;28;20064;-40
2021/06/22 04:39:20;;;;;;;21.25;18.52;;;11.10;99.90;;;;;;5043232;28;20461;-41
2021/06/22 04:41:46;;;;;;;24.52;19.42;;;11.10;99.90;;;;;;5043484;28;20488;-40
2021/06/22 04:44:12;;;;;;;27.10;19.48;;;11.20;99.90;;;;;;5046942;28;20048;-40
2021/06/22 04:46:39;;;;;;;21.35;17.60;;;11.30;99.90;;;;;;5047105;28;20041;-39
2021/06/22 04:49:05;;;;;;;25.73;18.88;;;11.40;99.90;;;;;;5045403;28;20396;-39
2021/06/22 04:51:31;;;;;;;25.10;18.17;;;11.50;99.90;;;;;;5046941;28;20152;-39
2021/06/22 04:54:00;;;;;;;24.08;19.05;;;11.70;99.90;;;;;;5038206;28;20082;-39
2021/06/22 04:56:32;;;;;;;23.77;19.00;;;11.80;99.90;;;;;;5034021;28;20044;-40
2021/06/22 04:58:59;;;;;;;23.70;19.65;;;11.90;99.90;;;;;;5047350;28;20463;-39
2021/06/22 05:01:26;;;;;;;25.17;18.75;;;12.00;99.90;;;;;;5047221;28;20401;-40
2021/06/22 05:03:52;;;;;;;23.98;17.92;;;12.10;99.90;;;;;;5045739;28;20048;-39
2021/06/22 05:06:19;;;;;;;26.65;19.33;;;12.20;99.90;;;;;;5042786;28;20045;-39
2021/06/22 05:08:45;;;;;;;20.85;17.08;;;12.40;99.90;;;;;;5027306;28;20045;-39
2021/06/22 05:11:11;;;;;;;23.85;16.42;;;12.50;99.90;;;;;;5032023;28;20057;-39
2021/06/22 05:13:38;;;;;;;21.38;17.13;;;12.90;99.90;;;;;;5037893;28;20472;-40
2021/06/22 05:16:04;;;;;;;18.08;15.27;;;13.10;99.90;;;;;;5037847;28;20477;-40
2021/06/22 05:18:41;;;;;;;25.05;19.15;;;13.50;99.90;;;;;;5046563;28;20055;-40
2021/06/22 05:21:07;;;;;;;37.25;28.98;;;13.80;99.90;;;;;;5050327;28;20044;-39
2021/06/22 05:23:34;;;;;;;19.73;14.60;;;14.00;99.90;;;;;;5055698;28;20141;-39
2021/06/22 05:26:00;;;;;;;33.95;27.50;;;14.10;99.90;;;;;;5049186;28;20548;-39
2021/06/22 05:28:26;;;;;;;27.80;22.23;;;14.20;99.90;;;;;;5067068;28;20392;-39
2021/06/22 05:30:53;;;;;;;38.60;32.10;;;14.40;99.90;;;;;;5046976;28;20045;-39
2021/06/22 05:33:21;;;;;;;19.30;15.57;;;14.60;99.90;;;;;;5046803;28;20049;-39
2021/06/22 05:35:53;;;;;;;21.67;15.80;;;14.80;99.90;;;;;;5045753;28;20085;-39
2021/06/22 05:38:19;;;;;;;22.55;18.23;;;15.00;99.90;;;;;;5049393;28;20448;-40
2021/06/22 05:40:49;;;;;;;17.77;14.50;;;14.80;99.90;;;;;;5049121;28;20052;-39
2021/06/22 05:43:18;;;;;;;22.20;17.45;;;14.80;99.90;;;;;;5047897;28;20469;-40
2021/06/22 05:45:45;;;;;;;22.30;18.23;;;14.90;99.90;;;;;;5042912;28;20053;-41
2021/06/22 05:48:16;;;;;;;18.90;16.25;;;14.90;99.90;;;;;;5038976;28;20500;-41
2021/06/22 05:50:43;;;;;;;45.83;41.28;;;15.00;99.90;;;;;;5044120;28;20045;-41
2021/06/22 05:53:09;;;;;;;17.05;15.07;;;15.10;99.90;;;;;;5044841;28;20643;-39
2021/06/22 05:55:35;;;;;;;21.98;14.30;;;15.30;99.90;;;;;;5043853;28;20130;-40
2021/06/22 05:58:02;;;;;;;27.50;22.52;;;15.50;99.90;;;;;;5059002;28;20475;-40
2021/06/22 06:00:31;;;;;;;43.15;38.30;;;15.50;99.90;;;;;;5036365;28;20068;-38
2021/06/22 06:03:00;;;;;;;18.02;15.15;;;15.50;99.90;;;;;;5043368;28;20049;-40
2021/06/22 06:05:27;;;;;;;65.82;58.83;;;15.70;99.90;;;;;;5037919;28;20469;-41
2021/06/22 06:07:53;;;;;;;19.45;14.40;;;15.60;99.90;;;;;;5051456;28;20052;-40
2021/06/22 06:10:20;;;;;;;19.60;14.77;;;15.70;99.90;;;;;;5036585;28;20158;-40
2021/06/22 06:12:47;;;;;;;18.50;15.98;;;15.70;99.90;;;;;;5030277;28;20056;-41
2021/06/22 06:15:14;;;;;;;17.92;12.63;;;15.90;99.90;;;;;;5059535;28;20097;-40
2021/06/22 06:17:43;;;;;;;16.73;12.50;;;16.00;99.90;;;;;;5053085;28;20045;-40
2021/06/22 06:20:14;;;;;;;13.45;9.95;;;16.20;99.90;;;;;;5042991;28;20157;-41
2021/06/22 06:22:45;;;;;;;31.63;26.52;;;16.30;99.90;;;;;;5033027;28;20095;-44
2021/06/22 06:25:12;;;;;;;45.67;41.25;;;16.50;99.90;;;;;;5047330;28;20142;-42
2021/06/22 06:30:18;;;;;;;16.77;11.02;;;16.80;99.90;;;;;;5046877;28;20041;-42
2021/06/22 06:32:48;;;;;;;14.10;9.50;;;17.00;99.90;;;;;;5030696;28;20045;-47
2021/06/22 06:35:19;;;;;;;18.10;14.10;;;17.10;99.90;;;;;;5041455;28;20045;-43
2021/06/22 06:37:49;;;;;;;18.55;12.68;;;17.00;99.90;;;;;;5049994;28;20053;-42
2021/06/22 06:40:16;;;;;;;12.65;9.18;;;17.00;99.90;;;;;;5046073;28;20037;-43
2021/06/22 06:42:44;;;;;;;18.23;14.85;;;17.10;99.90;;;;;;5038742;28;20036;-42
2021/06/22 06:45:16;;;;;;;19.63;16.08;;;17.20;99.90;;;;;;5042770;28;20040;-43
2021/06/22 06:47:42;;;;;;;15.45;12.50;;;17.30;99.90;;;;;;5039280;28;20056;-47
2021/06/22 06:50:08;;;;;;;70.22;62.65;;;17.50;98.50;;;;;;5029749;28;20045;-44
2021/06/22 06:52:35;;;;;;;13.82;7.85;;;17.50;99.90;;;;;;5047078;28;20073;-44
2021/06/22 06:55:04;;;;;;;11.95;7.40;;;17.30;99.90;;;;;;5035227;28;20130;-46
2021/06/22 06:57:30;;;;;;;14.35;8.77;;;17.40;99.90;;;;;;5047854;28;20060;-45
2021/06/22 06:59:57;;;;;;;16.50;11.32;;;17.30;99.90;;;;;;5049918;28;20053;-44
2021/06/22 07:02:34;;;;;;;16.98;11.13;;;17.50;99.00;;;;;;5045318;28;20128;-45
2021/06/22 07:05:04;;;;;;;11.07;8.25;;;17.70;99.30;;;;;;5042608;28;20073;-42
2021/06/22 07:07:30;;;;;;;12.50;8.23;;;17.70;99.70;;;;;;5043933;28;20049;-43
2021/06/22 07:09:56;;;;;;;17.98;7.80;;;17.50;98.90;;;;;;5047210;28;20130;-42
2021/06/22 07:12:34;;;;;;;11.85;6.80;;;17.50;99.50;;;;;;5045357;28;20045;-42
2021/06/22 07:15:07;;;;;;;31.67;26.02;;;17.70;97.20;;;;;;5046447;28;20087;-42
2021/06/22 07:17:34;;;;;;;14.52;6.80;;;17.90;96.10;;;;;;5048579;28;20049;-42
2021/06/22 07:20:03;;;;;;;62.15;55.50;;;18.00;96.70;;;;;;5049153;28;20072;-42
2021/06/22 07:22:30;;;;;;;15.73;9.48;;;18.30;94.60;;;;;;5045886;28;20102;-43
2021/06/22 07:24:57;;;;;;;11.90;6.75;;;18.50;98.50;;;;;;5048125;28;20498;-47
2021/06/22 07:27:23;;;;;;;14.30;10.15;;;18.70;97.00;;;;;;5048934;28;20443;-43
2021/06/22 07:29:57;;;;;;;14.75;5.82;;;18.90;96.60;;;;;;5065271;28;20157;-43
2021/06/22 07:32:24;;;;;;;13.52;8.75;;;19.10;96.90;;;;;;5056411;28;20144;-43
2021/06/22 07:34:50;;;;;;;12.10;5.35;;;19.20;94.50;;;;;;5046016;28;20515;-43
2021/06/22 07:37:16;;;;;;;12.00;6.35;;;19.30;95.80;;;;;;5038459;28;20477;-43
2021/06/22 07:39:44;;;;;;;9.77;6.10;;;19.40;93.00;;;;;;5045521;28;20060;-44
2021/06/22 07:42:11;;;;;;;10.40;4.90;;;19.30;93.30;;;;;;5048301;28;20049;-43
2021/06/22 07:44:37;;;;;;;9.40;4.68;;;19.40;92.10;;;;;;5040121;28;20136;-44
2021/06/22 07:47:03;;;;;;;11.40;5.15;;;19.60;92.30;;;;;;5037202;28;20047;-43
2021/06/22 07:49:29;;;;;;;10.70;5.97;;;19.50;91.40;;;;;;5040160;28;20553;-43
2021/06/22 07:51:56;;;;;;;22.10;18.42;;;19.90;91.60;;;;;;5043882;28;20065;-45
2021/06/22 07:54:22;;;;;;;9.23;5.57;;;19.80;91.30;;;;;;5047072;28;20473;-45
2021/06/22 07:56:48;;;;;;;12.13;4.40;;;20.20;92.00;;;;;;5042703;28;20046;-43
2021/06/22 07:59:19;;;;;;;9.23;4.93;;;20.20;87.50;;;;;;5045295;28;20079;-44
2021/06/22 08:01:46;;;;;;;25.35;20.33;;;20.30;88.80;;;;;;5057282;28;20041;-44
2021/06/22 08:04:13;;;;;;;30.83;27.15;;;20.20;87.90;;;;;;5046674;28;20362;-44
2021/06/22 08:06:39;;;;;;;11.65;4.95;;;20.00;85.90;;;;;;5041231;28;20345;-43
2021/06/22 08:09:05;;;;;;;25.02;21.13;;;19.90;85.60;;;;;;5045614;28;20036;-44
2021/06/22 08:11:32;;;;;;;11.95;6.32;;;19.60;85.50;;;;;;5048049;28;20057;-47
2021/06/22 08:13:58;;;;;;;17.35;15.23;;;19.40;87.10;;;;;;5041114;28;20308;-46
2021/06/22 08:16:24;;;;;;;19.48;15.43;;;19.30;88.40;;;;;;5047322;28;20135;-44
2021/06/22 08:18:50;;;;;;;20.95;14.48;;;19.10;87.90;;;;;;5052856;28;20477;-43
2021/06/22 08:21:19;;;;;;;11.95;5.10;;;19.00;87.80;;;;;;5042820;28;20539;-45
2021/06/22 08:23:46;;;;;;;14.52;11.27;;;18.90;88.30;;;;;;5041751;28;20056;-43
2021/06/22 08:26:12;;;;;;;9.38;7.32;;;18.90;89.00;;;;;;5038892;28;20063;-45
2021/06/22 08:28:38;;;;;;;20.73;16.88;;;18.70;89.70;;;;;;5038242;28;20094;-42
2021/06/22 08:31:07;;;;;;;12.20;7.13;;;18.60;87.90;;;;;;5043977;28;20489;-45
2021/06/22 08:33:33;;;;;;;19.20;12.35;;;18.40;88.70;;;;;;5046544;28;20049;-44
2021/06/22 08:36:01;;;;;;;10.65;4.85;;;18.40;89.80;;;;;;5045637;28;20439;-42
2021/06/22 08:38:29;;;;;;;8.27;4.45;;;18.50;90.50;;;;;;5040290;28;20350;-45
2021/06/22 08:40:59;;;;;;;10.90;4.68;;;18.80;91.30;;;;;;5039250;28;20086;-43
2021/06/22 08:43:25;;;;;;;9.60;3.70;;;19.10;91.10;;;;;;5046401;28;20072;-48
2021/06/22 08:45:52;;;;;;;16.65;13.07;;;19.30;89.50;;;;;;5041999;28;20069;-43
2021/06/22 08:48:18;;;;;;;12.45;4.60;;;19.90;90.50;;;;;;5039674;28;20465;-45
2021/06/22 08:50:47;;;;;;;12.57;5.78;;;20.00;88.90;;;;;;5039612;28;20045;-45
2021/06/22 08:53:14;;;;;;;25.83;19.05;;;20.10;86.30;;;;;;5046275;28;20041;-43
2021/06/22 08:55:42;;;;;;;12.90;5.10;;;19.90;82.00;;;;;;5046276;28;20048;-43
2021/06/22 08:58:16;;;;;;;18.98;13.23;;;19.80;84.80;;;;;;5043365;28;20473;-43
2021/06/22 09:00:45;;;;;;;27.05;20.38;;;19.70;83.10;;;;;;5052959;28;20102;-44
2021/06/22 09:03:17;;;;;;;11.63;5.80;;;19.60;85.30;;;;;;5040485;28;20045;-46
2021/06/22 09:05:48;;;;;;;9.57;4.35;;;19.50;84.10;;;;;;5044953;28;20045;-45
2021/06/22 09:08:17;;;;;;;11.40;5.50;;;19.30;84.90;;;;;;5045009;28;20080;-44
2021/06/22 09:10:44;;;;;;;9.07;5.72;;;20.10;87.20;;;;;;5047465;28;20079;-47
2021/06/22 09:13:18;;;;;;;13.98;5.68;;;20.70;86.50;;;;;;5051513;28;20037;-46
2021/06/22 09:15:50;;;;;;;13.55;7.68;;;21.30;83.50;;;;;;5046657;28;20103;-44
2021/06/22 09:18:26;;;;;;;11.23;4.22;;;21.80;82.50;;;;;;5032546;28;20037;-45
2021/06/22 09:20:56;;;;;;;9.48;4.22;;;22.50;79.70;;;;;;5045120;28;20048;-43
2021/06/22 09:23:36;;;;;;;9.45;3.63;;;22.80;77.10;;;;;;5046319;28;20037;-48
2021/06/22 09:26:26;;;;;;;15.50;12.98;;;23.10;77.40;;;;;;5040826;28;20164;-48
2021/06/22 09:29:07;;;;;;;41.03;36.83;;;22.80;66.60;;;;;;5051887;28;20549;-49
2021/06/22 09:31:34;;;;;;;10.55;4.28;;;22.00;66.30;;;;;;5045859;28;20045;-46
2021/06/22 09:34:00;;;;;;;9.25;4.65;;;22.20;71.00;;;;;;5041805;28;20049;-48
2021/06/22 09:36:30;;;;;;;16.48;11.43;;;22.20;68.70;;;;;;5035353;28;20033;-46
2021/06/22 09:39:02;;;;;;;15.10;11.70;;;22.60;69.40;;;;;;5047433;28;20075;-48
2021/06/22 09:41:40;;;;;;;9.52;6.32;;;22.60;66.90;;;;;;5045721;28;20072;-47
2021/06/22 09:44:16;;;;;;;8.15;4.63;;;23.10;65.10;;;;;;5051415;28;20087;-48
2021/06/22 09:46:54;;;;;;;11.27;5.82;;;22.60;65.50;;;;;;5047408;28;20045;-50
2021/06/22 09:49:23;;;;;;;18.98;16.45;;;21.90;64.20;;;;;;5038950;28;20075;-48
2021/06/22 09:52:02;;;;;;;18.77;14.95;;;21.00;67.60;;;;;;5049352;28;20098;-49
2021/06/22 09:54:31;;;;;;;9.68;5.82;;;20.50;69.90;;;;;;5037671;28;20179;-49
2021/06/22 09:57:05;;;;;;;9.73;6.53;;;20.20;72.20;;;;;;5050332;28;20350;-47
2021/06/22 10:00:06;;;;;;;55.58;49.78;;;20.10;72.90;;;;;;5048683;28;20051;-47
2021/06/22 10:03:11;;;;;;;12.65;5.53;;;19.80;71.70;;;;;;5057754;28;20392;-46
2021/06/22 10:05:54;;;;;;;32.95;26.75;;;19.60;75.70;;;;;;5058931;28;20051;-45
2021/06/22 10:08:23;;;;;;;12.32;7.63;;;19.50;74.70;;;;;;5025313;28;20045;-46
2021/06/22 10:10:49;;;;;;;11.10;5.10;;;19.60;76.40;;;;;;5035444;28;20576;-46
2021/06/22 10:13:43;;;;;;;17.73;14.07;;;19.70;77.40;;;;;;5048888;28;20041;-51
2021/06/22 10:16:23;;;;;;;8.15;3.72;;;19.70;75.90;;;;;;5035506;28;20207;-46
2021/06/22 10:18:50;;;;;;;15.05;10.38;;;20.00;76.20;;;;;;5046575;28;20052;-47
2021/06/22 10:21:19;;;;;;;15.25;10.18;;;19.90;74.40;;;;;;5029541;28;20052;-45
2021/06/22 10:23:45;;;;;;;9.38;3.10;;;19.90;73.70;;;;;;5036974;28;20041;-47
2021/06/22 10:26:11;;;;;;;9.07;3.97;;;19.80;73.50;;;;;;5040324;28;20578;-45
2021/06/22 10:28:38;;;;;;;11.05;6.30;;;19.90;74.00;;;;;;5040582;28;20041;-45
2021/06/22 10:31:04;;;;;;;7.55;3.70;;;19.90;74.30;;;;;;5033907;28;20089;-47
2021/06/22 10:33:31;;;;;;;8.98;4.78;;;20.00;74.20;;;;;;5046816;28;20187;-46
2021/06/22 10:35:58;;;;;;;7.45;3.20;;;20.00;73.60;;;;;;5034024;28;20049;-45
2021/06/22 10:38:26;;;;;;;119.85;92.93;;;20.10;74.70;;;;;;5027603;28;20549;-47
2021/06/22 10:40:58;;;;;;;44.05;38.33;;;20.00;74.10;;;;;;5042621;28;20048;-45
2021/06/22 10:43:36;;;;;;;8.65;4.05;;;20.20;74.60;;;;;;5038450;28;20056;-45
2021/06/22 10:46:06;;;;;;;11.90;9.40;;;20.30;76.10;;;;;;5045141;28;20053;-44
2021/06/22 10:48:48;;;;;;;14.10;9.88;;;20.30;75.20;;;;;;5042835;28;20046;-44
2021/06/22 10:51:29;;;;;;;28.33;24.15;;;20.30;74.40;;;;;;5028801;28;20069;-46
2021/06/22 10:53:57;;;;;;;10.98;6.95;;;20.30;68.10;;;;;;5040931;28;20164;-45
2021/06/22 10:56:25;;;;;;;22.23;19.08;;;20.30;69.50;;;;;;5044028;28;20041;-47
2021/06/22 10:59:18;;;;;;;12.20;8.05;;;20.20;68.40;;;;;;5044925;28;20053;-47
2021/06/22 11:01:57;;;;;;;14.68;7.50;;;20.30;70.10;;;;;;5037112;28;20040;-46
2021/06/22 11:04:24;;;;;;;13.38;5.60;;;20.50;72.00;;;;;;5046043;28;20060;-45
2021/06/22 11:07:06;;;;;;;7.35;4.75;;;20.50;72.90;;;;;;5033901;28;20402;-48
2021/06/22 11:09:33;;;;;;;12.40;8.77;;;20.70;72.10;;;;;;5039922;28;20140;-47
2021/06/22 11:12:17;;;;;;;9.00;5.22;;;20.70;72.00;;;;;;5043245;28;20421;-48
2021/06/22 11:14:59;;;;;;;8.85;4.35;;;20.90;69.70;;;;;;5037190;28;20049;-48
2021/06/22 11:17:41;;;;;;;11.02;4.57;;;21.00;70.30;;;;;;5039595;28;20474;-45
2021/06/22 11:20:09;;;;;;;11.73;6.03;;;21.30;68.10;;;;;;5037531;28;20038;-49
2021/06/22 11:23:10;;;;;;;9.65;4.50;;;21.50;69.70;;;;;;5052568;28;20045;-46
2021/06/22 11:25:58;;;;;;;9.85;4.63;;;21.50;66.80;;;;;;5048321;28;20068;-46
2021/06/22 11:28:25;;;;;;;8.60;3.65;;;21.60;65.90;;;;;;5063433;28;20159;-47
2021/06/22 11:30:58;;;;;;;11.48;4.72;;;21.60;67.00;;;;;;5050899;28;20052;-45
2021/06/22 11:33:45;;;;;;;9.43;3.90;;;21.60;65.60;;;;;;5052771;28;20124;-50
2021/06/22 11:36:20;;;;;;;8.45;3.67;;;21.70;67.40;;;;;;5047568;28;20076;-45
2021/06/22 11:39:10;;;;;;;9.30;3.88;;;21.50;67.00;;;;;;5069611;28;20048;-45
2021/06/22 11:41:38;;;;;;;9.15;3.65;;;21.50;66.10;;;;;;5069378;28;20048;-46
2021/06/22 11:44:07;;;;;;;17.08;4.78;;;21.50;66.00;;;;;;5069292;28;20041;-47
2021/06/22 11:46:41;;;;;;;7.78;4.30;;;21.20;67.20;;;;;;5050601;28;20037;-46
2021/06/22 11:49:08;;;;;;;11.45;4.60;;;21.30;67.60;;;;;;5049838;28;20052;-47
2021/06/22 11:51:49;;;;;;;8.73;4.05;;;21.70;68.30;;;;;;5053730;28;20531;-45
2021/06/22 11:54:39;;;;;;;7.55;5.13;;;22.00;65.30;;;;;;5056216;28;20040;-46
2021/06/22 11:57:12;;;;;;;10.05;3.78;;;22.20;65.40;;;;;;5040418;28;20048;-51
2021/06/22 11:59:39;;;;;;;6.70;3.35;;;22.60;64.70;;;;;;5037341;28;20094;-46
2021/06/22 12:02:05;;;;;;;7.53;3.50;;;23.10;63.10;;;;;;5045632;28;20044;-47
2021/06/22 12:04:32;;;;;;;10.38;4.20;;;23.70;62.10;;;;;;5033428;28;20512;-46
2021/06/22 12:06:59;;;;;;;9.13;3.90;;;23.90;62.00;;;;;;5042334;28;20045;-50
2021/06/22 12:09:27;;;;;;;6.45;3.42;;;24.30;60.30;;;;;;5034690;28;20136;-47
2021/06/22 12:11:57;;;;;;;8.80;3.70;;;24.10;58.30;;;;;;5038050;28;20053;-45
2021/06/22 12:14:23;;;;;;;8.65;3.75;;;24.30;55.60;;;;;;5048259;28;20049;-49
2021/06/22 12:16:50;;;;;;;7.72;3.50;;;24.50;55.20;;;;;;5045233;28;20045;-46
2021/06/22 12:19:18;;;;;;;14.30;8.20;;;24.20;54.70;;;;;;5046991;28;20132;-49
2021/06/22 12:21:48;;;;;;;15.18;10.77;;;24.00;54.80;;;;;;5048146;28;20081;-48
2021/06/22 12:24:16;;;;;;;14.02;8.98;;;24.10;54.50;;;;;;5049595;28;20056;-47
2021/06/22 12:26:45;;;;;;;10.60;5.38;;;24.30;56.50;;;;;;5049930;28;20049;-46
2021/06/22 12:29:29;;;;;;;10.25;6.65;;;24.30;56.50;;;;;;5046620;28;20037;-48
2021/06/22 12:31:56;;;;;;;7.60;3.63;;;23.60;54.80;;;;;;5046511;28;20124;-48
2021/06/22 12:34:24;;;;;;;11.38;5.68;;;23.20;57.00;;;;;;5046499;28;20049;-48
2021/06/22 12:36:51;;;;;;;11.20;8.32;;;22.60;56.70;;;;;;5050507;28;20045;-47
2021/06/22 12:39:18;;;;;;;9.90;4.10;;;22.10;58.30;;;;;;5061637;28;20044;-46
2021/06/22 12:41:45;;;;;;;12.27;7.78;;;22.00;60.80;;;;;;5046375;28;20036;-45
2021/06/22 12:44:14;;;;;;;11.02;5.18;;;21.90;62.20;;;;;;5027614;28;20394;-50
2021/06/22 12:46:43;;;;;;;77.93;70.32;;;21.40;60.90;;;;;;5043259;28;20040;-49
2021/06/22 12:49:23;;;;;;;12.07;4.97;;;21.20;62.20;;;;;;5042947;28;20516;-48
2021/06/22 12:51:49;;;;;;;20.98;16.55;;;20.90;61.80;;;;;;5047309;28;20045;-48